createdAt,value
2022-10-24T00:01:53.759Z,1.25
2022-10-24T00:06:56.409Z,1.50
2022-10-24T00:11:59.107Z,1.00
2022-10-24T00:17:03.479Z,2.00
2022-10-24T00:22:06.189Z,2.75
2022-10-24T00:27:09.566Z,2.00
2022-10-24T00:32:14.452Z,2.00
2022-10-24T00:37:17.190Z,1.00
2022-10-24T00:42:19.927Z,1.50
2022-10-24T00:47:26.936Z,2.00
2022-10-24T00:52:34.419Z,1.00
2022-10-24T00:57:41.145Z,0.00
2022-10-24T01:02:46.784Z,2.00
2022-10-24T01:07:58.735Z,1.00
2022-10-24T01:13:12.856Z,1.00
2022-10-24T01:18:23.467Z,0.75
2022-10-24T01:23:53.468Z,1.00
2022-10-24T01:29:07.488Z,1.00
2022-10-24T01:34:18.345Z,1.00
2022-10-24T01:39:27.069Z,3.00
2022-10-24T01:44:33.954Z,0.50
2022-10-24T01:49:40.951Z,1.00
2022-10-24T01:54:45.683Z,0.75
2022-10-24T01:59:49.404Z,0.75
2022-10-24T02:04:57.728Z,1.00
2022-10-24T02:10:04.481Z,0.75
2022-10-24T02:15:13.897Z,0.25
2022-10-24T02:20:18.619Z,0.50
2022-10-24T02:25:26.254Z,1.00
2022-10-24T02:30:32.820Z,1.00
2022-10-24T02:35:39.917Z,1.25
2022-10-24T02:40:44.793Z,1.00
2022-10-24T02:45:49.567Z,0.00
2022-10-24T02:50:53.546Z,1.00
2022-10-24T02:55:56.515Z,1.00
2022-10-24T03:00:59.238Z,1.00
2022-10-24T03:06:03.216Z,0.25
2022-10-24T03:11:06.153Z,1.00
2022-10-24T03:16:11.666Z,1.00
2022-10-24T03:21:18.118Z,1.75
2022-10-24T03:26:20.824Z,1.00
2022-10-24T03:31:23.713Z,1.00
2022-10-24T03:36:27.719Z,0.50
2022-10-24T03:41:30.400Z,0.25
2022-10-24T03:46:33.009Z,1.25
2022-10-24T03:51:37.151Z,0.00
2022-10-24T03:56:39.746Z,0.00
2022-10-24T04:01:42.615Z,0.25
2022-10-24T04:06:46.748Z,1.00
2022-10-24T04:11:51.156Z,1.00
2022-10-24T04:16:53.868Z,1.00
2022-10-24T04:21:58.793Z,1.50
2022-10-24T04:27:01.468Z,1.00
2022-10-24T04:32:04.591Z,0.00
2022-10-24T04:37:08.570Z,1.00
2022-10-24T04:42:11.214Z,0.00
2022-10-24T04:47:14.247Z,0.00
2022-10-24T04:52:18.292Z,0.50
2022-10-24T04:57:20.885Z,1.00
2022-10-24T05:02:23.538Z,1.00
2022-10-24T05:07:27.716Z,0.00
2022-10-24T05:12:30.335Z,0.00
2022-10-24T05:17:33.318Z,0.50
2022-10-24T05:22:37.721Z,0.00
2022-10-24T05:27:40.384Z,1.50
2022-10-24T05:32:43.303Z,0.25
2022-10-24T05:37:47.592Z,1.00
2022-10-24T05:42:52.160Z,0.50
2022-10-24T05:47:54.839Z,0.75
2022-10-24T05:52:58.841Z,0.00
2022-10-24T05:58:01.778Z,1.00
2022-10-24T06:03:04.366Z,0.00
2022-10-24T06:08:08.604Z,0.00
2022-10-24T06:13:11.286Z,0.00
2022-10-24T06:18:14.168Z,1.00
2022-10-24T06:23:18.266Z,0.50
2022-10-24T06:28:21.012Z,0.00
2022-10-24T06:33:23.722Z,0.00
2022-10-24T06:38:27.847Z,0.00
2022-10-24T06:43:30.586Z,0.00
2022-10-24T06:48:33.482Z,1.00
2022-10-24T06:53:37.481Z,0.00
2022-10-24T06:58:40.203Z,0.00
2022-10-24T07:03:43.277Z,0.00
2022-10-24T07:08:48.021Z,0.00
2022-10-24T07:13:51.499Z,0.50
2022-10-24T07:18:55.279Z,1.00
2022-10-24T07:23:59.582Z,0.50
2022-10-24T07:34:10.744Z,1.00
2022-10-24T07:39:14.984Z,1.00
2022-10-24T07:44:17.595Z,1.75
2022-10-24T07:49:20.477Z,1.75
2022-10-24T07:54:25.656Z,2.75
2022-10-24T07:59:41.786Z,0.50
2022-10-24T08:04:45.943Z,1.00
2022-10-24T08:09:51.201Z,2.00
2022-10-24T08:14:55.627Z,2.50
2022-10-24T08:19:58.443Z,1.00
2022-10-24T08:25:02.532Z,2.50
2022-10-24T08:30:06.417Z,3.00
2022-10-24T08:35:10.773Z,1.75
2022-10-24T08:40:19.179Z,1.75
2022-10-24T08:45:30.226Z,2.75
2022-10-24T08:50:35.337Z,2.00
2022-10-24T08:55:49.441Z,3.00
2022-10-24T09:00:56.264Z,2.75
2022-10-24T09:06:03.650Z,1.00
2022-10-24T09:11:08.871Z,2.00
2022-10-24T09:16:15.459Z,3.00
2022-10-24T09:21:18.677Z,2.75
2022-10-24T09:26:29.542Z,2.50
2022-10-24T09:31:32.297Z,3.00
2022-10-24T09:36:35.015Z,2.75
2022-10-24T09:41:39.127Z,2.25
2022-10-24T09:46:45.866Z,4.25
2022-10-24T09:52:01.678Z,2.00
2022-10-24T10:02:24.376Z,2.75
2022-10-24T10:07:29.358Z,3.50
2022-10-24T10:12:37.073Z,1.75
2022-10-24T10:17:50.850Z,2.00
2022-10-24T10:22:53.634Z,2.50
2022-10-24T10:28:01.035Z,1.25
2022-10-24T10:33:19.872Z,2.25
2022-10-24T10:38:50.007Z,4.00
2022-10-24T10:44:06.652Z,5.25
2022-10-24T10:49:17.687Z,2.50
2022-10-24T10:54:38.647Z,1.50
2022-10-24T10:59:53.670Z,2.75
2022-10-24T11:05:04.324Z,1.50
2022-10-24T11:10:11.403Z,4.00
2022-10-24T11:15:22.620Z,2.50
2022-10-24T11:20:29.634Z,3.00
2022-10-24T11:25:37.919Z,2.00
2022-10-24T11:30:51.510Z,2.25
2022-10-24T11:36:07.354Z,3.50
2022-10-24T11:41:33.000Z,3.25
2022-10-24T11:46:43.603Z,2.00
2022-10-24T11:51:51.139Z,2.00
2022-10-24T11:56:59.744Z,3.50
2022-10-24T12:02:45.096Z,3.50
2022-10-24T12:08:05.321Z,3.00
2022-10-24T12:13:28.887Z,2.00
2022-10-24T12:18:35.439Z,1.50
2022-10-24T12:23:42.232Z,2.75
2022-10-24T12:28:55.365Z,2.75
2022-10-24T12:34:48.765Z,4.50
2022-10-24T12:39:58.553Z,2.25
2022-10-24T12:45:28.753Z,1.00
2022-10-24T12:51:08.685Z,2.75
2022-10-24T12:56:20.655Z,2.00
2022-10-24T13:01:27.264Z,2.25
2022-10-24T13:06:46.134Z,2.00
2022-10-24T13:12:08.482Z,2.00
2022-10-24T13:17:19.639Z,2.00
2022-10-24T13:22:30.583Z,1.75
2022-10-24T13:27:34.773Z,1.75
2022-10-24T13:32:37.433Z,1.00
2022-10-24T13:37:44.450Z,1.00
2022-10-24T13:42:54.705Z,1.00
2022-10-24T13:48:02.333Z,2.00
2022-10-24T13:53:15.477Z,2.00
2022-10-24T13:58:22.174Z,1.00
2022-10-24T14:03:27.775Z,0.75
2022-10-24T14:08:33.662Z,0.50
2022-10-24T14:13:43.597Z,1.50
2022-10-24T14:18:46.454Z,1.00
2022-10-24T14:23:57.581Z,0.00
2022-10-24T14:29:01.894Z,0.50
2022-10-24T14:34:09.518Z,0.50
2022-10-24T14:39:23.645Z,0.00
2022-10-24T14:44:28.707Z,1.00
2022-10-24T14:49:33.720Z,0.50
2022-10-24T14:54:37.500Z,1.00
2022-10-24T14:59:46.720Z,0.50
2022-10-24T15:04:51.850Z,0.25
2022-10-24T15:09:57.600Z,0.00
2022-10-24T15:15:22.789Z,1.00
2022-10-24T15:20:29.438Z,0.00
2022-10-24T15:25:36.708Z,0.50
2022-10-24T15:30:43.188Z,0.00
2022-10-24T15:35:45.940Z,0.75
2022-10-24T15:40:49.814Z,1.00
2022-10-24T15:45:53.801Z,1.00
2022-10-24T15:50:56.546Z,0.00
2022-10-24T15:55:59.232Z,0.50
2022-10-24T16:01:03.392Z,13.75
2022-10-24T16:06:06.405Z,33.40
2022-10-24T16:11:10.615Z,30.60
2022-10-24T16:16:14.792Z,34.40
2022-10-24T16:21:19.453Z,35.00
2022-10-24T16:26:22.567Z,35.20
2022-10-24T16:31:26.636Z,37.40
2022-10-24T16:36:29.476Z,36.20
2022-10-24T16:41:32.097Z,38.80
2022-10-24T16:46:36.117Z,37.40
2022-10-24T16:51:43.296Z,37.20
2022-10-24T16:56:53.187Z,37.80
2022-10-24T17:01:57.997Z,38.20
2022-10-24T17:07:00.725Z,36.20
2022-10-24T17:12:03.705Z,36.40
2022-10-24T17:17:07.967Z,37.80
2022-10-24T17:22:12.600Z,35.40
2022-10-24T17:27:16.783Z,36.00
2022-10-24T17:32:21.185Z,34.20
2022-10-24T17:37:33.757Z,34.40
2022-10-24T17:42:36.933Z,32.20
2022-10-24T17:47:41.187Z,30.40
2022-10-24T17:52:50.223Z,30.20
2022-10-24T17:57:52.885Z,32.20
2022-10-24T18:02:57.239Z,28.20
2022-10-24T18:07:59.835Z,27.80
2022-10-24T18:13:02.940Z,30.00
2022-10-24T18:18:07.650Z,29.00
2022-10-24T18:23:10.369Z,26.00
2022-10-24T18:28:13.316Z,27.25
2022-10-24T18:33:17.335Z,25.67
2022-10-24T18:38:19.964Z,24.25
2022-10-24T18:43:22.803Z,25.00
2022-10-24T18:48:27.963Z,23.50
2022-10-24T18:53:37.799Z,23.25
2022-10-24T18:58:41.514Z,23.00
2022-10-24T19:03:46.433Z,19.50
2022-10-24T19:08:49.265Z,22.00
2022-10-24T19:13:52.280Z,20.50
2022-10-24T19:18:59.216Z,18.25
2022-10-24T19:24:02.311Z,20.50
2022-10-24T19:29:05.949Z,21.50
2022-10-24T19:34:11.784Z,20.50
2022-10-24T19:39:14.413Z,18.25
2022-10-24T19:44:17.101Z,16.75
2022-10-24T19:49:21.284Z,19.00
2022-10-24T19:54:24.044Z,16.50
2022-10-24T19:59:31.618Z,15.00
2022-10-24T20:04:43.434Z,17.00
2022-10-24T20:09:48.148Z,15.25
2022-10-24T20:14:50.817Z,14.50
2022-10-24T20:19:54.870Z,15.25
2022-10-24T20:24:57.640Z,16.25
2022-10-24T20:30:00.351Z,14.25
2022-10-24T20:35:04.606Z,16.50
2022-10-24T20:40:08.540Z,12.50
2022-10-24T20:45:11.834Z,13.25
2022-10-24T20:50:16.242Z,13.75
2022-10-24T20:55:32.023Z,11.00
2022-10-24T21:00:42.455Z,12.25
2022-10-24T21:05:46.470Z,14.75
2022-10-24T21:10:49.147Z,14.00
2022-10-24T21:15:56.315Z,11.00
2022-10-24T21:21:06.122Z,12.00
2022-10-24T21:26:10.683Z,11.50
2022-10-24T21:31:16.084Z,11.25
2022-10-24T21:36:22.802Z,12.00
2022-10-24T21:41:26.841Z,10.50
2022-10-24T21:46:30.067Z,11.25
2022-10-24T21:51:36.428Z,12.00
2022-10-24T21:56:39.036Z,10.50
2022-10-24T22:01:42.901Z,12.00
2022-10-24T22:06:47.704Z,10.50
2022-10-24T22:11:50.714Z,11.50
2022-10-24T22:16:53.939Z,10.25
2022-10-24T22:21:57.910Z,12.00
2022-10-24T22:27:00.557Z,10.75
2022-10-24T22:32:03.720Z,9.75
2022-10-24T22:37:15.925Z,10.00
2022-10-24T22:42:20.282Z,10.25
2022-10-24T22:47:45.449Z,9.25
2022-10-24T22:52:50.130Z,9.25
2022-10-24T22:57:53.258Z,8.50
2022-10-24T23:03:04.809Z,8.75
2022-10-24T23:08:15.213Z,9.25
2022-10-24T23:13:18.405Z,10.75
2022-10-24T23:18:21.605Z,10.00
2022-10-24T23:23:29.046Z,11.25
2022-10-24T23:28:41.535Z,9.25
2022-10-24T23:33:44.704Z,10.75
2022-10-24T23:38:49.451Z,9.50
2022-10-24T23:43:52.708Z,8.50
2022-10-24T23:49:06.614Z,7.50
2022-10-24T23:54:12.679Z,9.00
2022-10-24T23:59:15.262Z,8.50
